Time;durP1;ratioP1;P1;durP2;ratioP2;P2;SDS_P1;SDS_P2;PMS_P1;PMS_P2;Temp;Humidity;BMP_temperature;BMP_pressure;BME280_temperature;BME280_humidity;BME280_pressure;Samples;Min_cycle;Max_cycle;Signal;HPM_P1;HPM_P2
2022/11/26 00:01:17;;;;;;;4.75;1.63;;;;;;;2.28;100.00;101800.84;5026066;28;20505;-59
2022/11/26 00:03:43;;;;;;;1.38;1.13;;;;;;;2.27;100.00;101793.94;5026630;28;20035;-60
2022/11/26 00:06:29;;;;;;;1.55;0.98;;;;;;;2.28;100.00;101797.41;5024763;28;20427;-60
2022/11/26 00:08:54;;;;;;;4.00;1.77;;;;;;;2.29;100.00;101802.50;5017252;28;20384;-61
2022/11/26 00:11:19;;;;;;;7.25;1.40;;;;;;;2.26;100.00;101805.34;5012001;28;20048;-60
2022/11/26 00:13:45;;;;;;;3.88;1.48;;;;;;;2.29;100.00;101802.50;5027228;28;20473;-58
2022/11/26 00:16:14;;;;;;;1.70;1.02;;;;;;;2.32;100.00;101796.22;5025648;28;20588;-58
2022/11/26 00:18:43;;;;;;;8.05;2.28;;;;;;;2.25;100.00;101800.22;5026298;28;20491;-60
2022/11/26 00:21:22;;;;;;;3.58;2.20;;;;;;;2.18;100.00;101795.41;5025166;28;20033;-60
2022/11/26 00:23:47;;;;;;;3.00;1.35;;;;;;;2.23;100.00;101794.25;5027506;28;20053;-57
2022/11/26 00:26:16;;;;;;;6.28;1.70;;;;;;;2.28;100.00;101797.41;5022903;28;20087;-59
2022/11/26 00:28:50;;;;;;;3.17;0.90;;;;;;;2.29;100.00;101794.66;5027294;28;20033;-60
2022/11/26 00:31:15;;;;;;;3.42;0.90;;;;;;;2.27;100.00;101793.09;5025674;28;20103;-58
2022/11/26 00:33:41;;;;;;;7.63;2.45;;;;;;;2.22;100.00;101796.03;5027778;28;20092;-59
2022/11/26 00:36:24;;;;;;;10.73;1.05;;;;;;;2.24;100.00;101794.13;5027369;28;20456;-57
2022/11/26 00:39:15;;;;;;;6.65;0.52;;;;;;;2.27;100.00;101801.81;5025243;28;20032;-60
2022/11/26 00:41:45;;;;;;;2.83;0.82;;;;;;;2.26;100.00;101802.72;5013787;28;20033;-59
2022/11/26 00:44:24;;;;;;;7.03;1.52;;;;;;;2.26;100.00;101802.72;5028029;28;20502;-59
2022/11/26 00:46:49;;;;;;;6.65;1.27;;;;;;;2.21;100.00;101801.38;5024941;28;20025;-60
2022/11/26 00:49:15;;;;;;;1.45;0.45;;;;;;;2.22;100.00;101811.75;5026834;28;20034;-60
2022/11/26 00:51:41;;;;;;;1.38;0.65;;;;;;;2.22;100.00;101816.97;5027296;28;20035;-60
2022/11/26 00:54:11;;;;;;;3.10;1.63;;;;;;;2.27;100.00;101811.41;5027431;28;20378;-59
2022/11/26 00:56:38;;;;;;;6.90;1.33;;;;;;;2.32;100.00;101806.69;5028917;28;20017;-59
2022/11/26 00:59:03;;;;;;;6.18;1.23;;;;;;;2.34;100.00;101808.25;5027751;28;20029;-60
2022/11/26 01:01:28;;;;;;;2.00;0.95;;;;;;;2.34;100.00;101813.50;5019700;28;20389;-60
2022/11/26 01:03:54;;;;;;;3.70;1.25;;;;;;;2.43;100.00;101809.44;5033853;28;20072;-60
2022/11/26 01:06:33;;;;;;;3.55;1.95;;;;;;;2.48;100.00;101809.09;5029991;28;20041;-60
2022/11/26 01:08:59;;;;;;;4.07;1.02;;;;;;;2.46;100.00;101811.84;5028157;28;20053;-59
2022/11/26 01:11:25;;;;;;;4.60;0.88;;;;;;;2.44;100.00;101798.00;5030520;28;20107;-60
2022/11/26 01:13:52;;;;;;;9.68;1.40;;;;;;;2.58;100.00;101808.38;5027655;28;20382;-60
2022/11/26 01:16:17;;;;;;;5.30;2.08;;;;;;;2.59;100.00;101806.59;5034013;28;20033;-60
2022/11/26 01:18:43;;;;;;;4.38;1.35;;;;;;;2.64;100.00;101807.09;5031796;28;20102;-60
2022/11/26 01:21:10;;;;;;;12.45;1.33;;;;;;;2.69;100.00;101798.94;5030468;28;20052;-60
2022/11/26 01:23:35;;;;;;;5.78;1.98;;;;;;;2.69;100.00;101789.28;5027224;28;20037;-60
2022/11/26 01:26:01;;;;;;;6.32;3.63;;;;;;;2.66;100.00;101792.13;5038899;28;20523;-60
2022/11/26 01:28:26;;;;;;;3.65;2.10;;;;;;;2.63;100.00;101797.56;5033199;28;20060;-58
2022/11/26 01:30:51;;;;;;;8.40;1.27;;;;;;;2.64;100.00;101799.25;5028698;28;20109;-61
2022/11/26 01:33:17;;;;;;;3.15;1.30;;;;;;;2.61;100.00;101799.47;5029240;28;20360;-60
2022/11/26 01:35:42;;;;;;;3.80;1.20;;;;;;;2.59;100.00;101809.22;5033864;28;20087;-59
2022/11/26 01:38:12;;;;;;;7.25;1.35;;;;;;;2.59;100.00;101809.22;5025040;28;20032;-58
2022/11/26 01:40:56;;;;;;;3.08;1.67;;;;;;;2.58;100.00;101804.91;5022617;28;20113;-56
2022/11/26 01:43:33;;;;;;;2.08;1.38;;;;;;;2.56;100.00;101807.63;5027829;28;20068;-59
2022/11/26 01:45:58;;;;;;;7.72;1.30;;;;;;;2.60;100.00;101808.25;5032294;28;20580;-59
2022/11/26 01:48:28;;;;;;;2.30;1.25;;;;;;;2.70;100.00;101803.22;5037523;28;20108;-59
2022/11/26 01:51:06;;;;;;;8.00;2.25;;;;;;;2.77;100.00;101810.53;5032337;28;20033;-59
2022/11/26 01:53:50;;;;;;;1.55;0.80;;;;;;;2.79;100.00;101808.66;5034101;28;20050;-59
2022/11/26 01:56:26;;;;;;;4.35;1.52;;;;;;;2.77;100.00;101810.53;5036609;28;20036;-59
2022/11/26 01:58:59;;;;;;;7.15;1.30;;;;;;;2.78;100.00;101806.97;5034833;28;20410;-59
2022/11/26 02:01:25;;;;;;;5.15;2.63;;;;;;;2.82;100.00;101818.09;5032880;28;20021;-58
2022/11/26 02:04:08;;;;;;;2.25;1.25;;;;;;;2.81;100.00;101817.25;5029935;28;20056;-59
2022/11/26 02:06:34;;;;;;;8.02;1.70;;;;;;;2.76;100.00;101819.34;5033000;28;20044;-61
2022/11/26 02:09:02;;;;;;;3.88;1.48;;;;;;;2.71;100.00;101828.44;5026452;28;20041;-59
2022/11/26 02:11:27;;;;;;;1.85;1.23;;;;;;;2.69;100.00;101823.34;5032928;28;20171;-61
2022/11/26 02:13:57;;;;;;;6.85;1.50;;;;;;;2.75;100.00;101824.69;5027877;28;20195;-58
2022/11/26 02:16:44;;;;;;;2.67;1.55;;;;;;;2.72;100.00;101819.66;5026466;28;20041;-60
2022/11/26 02:19:54;;;;;;;6.32;1.40;;;;;;;2.73;100.00;101819.53;5037654;28;20075;-59
2022/11/26 02:22:32;;;;;;;4.53;0.93;;;;;;;2.70;100.00;101825.00;5016738;28;20053;-58
2022/11/26 02:25:21;;;;;;;2.88;2.45;;;;;;;2.74;100.00;101831.72;5026260;28;20091;-59
2022/11/26 02:28:08;;;;;;;5.35;2.17;;;;;;;2.75;100.00;101824.69;5034431;28;20033;-60
2022/11/26 02:30:43;;;;;;;4.85;1.30;;;;;;;2.73;100.00;101832.63;5029782;28;20048;-61
2022/11/26 02:33:25;;;;;;;3.72;0.80;;;;;;;2.71;100.00;101836.31;5031381;28;20029;-60
2022/11/26 02:36:06;;;;;;;4.57;1.30;;;;;;;2.71;100.00;101842.41;5038300;28;20032;-59
2022/11/26 02:38:35;;;;;;;2.30;0.70;;;;;;;2.70;100.00;101835.47;5028651;28;20037;-59
2022/11/26 02:41:01;;;;;;;4.22;1.20;;;;;;;2.66;100.00;101841.88;5033937;28;20036;-60
2022/11/26 02:43:27;;;;;;;5.20;1.88;;;;;;;2.72;100.00;101844.06;5028431;28;20399;-60
2022/11/26 02:45:57;;;;;;;3.75;1.15;;;;;;;2.77;100.00;101841.97;5034279;28;20033;-61
2022/11/26 02:48:27;;;;;;;2.10;0.88;;;;;;;2.79;100.00;101844.50;5029879;28;20033;-59
2022/11/26 02:50:57;;;;;;;3.28;1.85;;;;;;;2.82;100.00;101839.88;5032018;28;20044;-59
2022/11/26 02:53:27;;;;;;;2.90;2.15;;;;;;;2.82;100.00;101836.41;5029213;28;20085;-59
2022/11/26 02:56:01;;;;;;;5.65;1.05;;;;;;;2.75;100.00;101838.63;5039381;28;20034;-59
2022/11/26 02:58:27;;;;;;;7.82;1.98;;;;;;;2.73;100.00;101837.88;5033443;28;20033;-59
2022/11/26 03:00:55;;;;;;;2.13;0.88;;;;;;;2.74;100.00;101842.19;5023828;28;20434;-62
2022/11/26 03:03:25;;;;;;;8.63;1.65;;;;;;;2.72;100.00;101848.47;5029258;28;20395;-62
2022/11/26 03:05:54;;;;;;;9.15;1.88;;;;;;;2.71;100.00;101846.78;5027734;28;20029;-58
2022/11/26 03:08:20;;;;;;;4.32;3.05;;;;;;;2.69;100.00;101844.28;5023617;28;20112;-59
2022/11/26 03:10:45;;;;;;;1.30;1.15;;;;;;;2.69;100.00;101846.06;5025120;28;20129;-60
2022/11/26 03:13:10;;;;;;;6.35;1.45;;;;;;;2.68;100.00;101839.16;5028261;28;20362;-60
2022/11/26 03:15:36;;;;;;;9.40;1.85;;;;;;;2.70;100.00;101839.88;5031003;28;20030;-60
2022/11/26 03:18:01;;;;;;;4.28;1.10;;;;;;;2.68;100.00;101839.16;5026776;28;20037;-60
2022/11/26 03:20:26;;;;;;;3.35;0.98;;;;;;;2.66;100.00;101855.00;5027073;28;20046;-60
2022/11/26 03:22:52;;;;;;;1.90;1.40;;;;;;;2.70;100.00;101837.25;5025154;28;20100;-59
2022/11/26 03:25:17;;;;;;;4.75;0.73;;;;;;;2.68;100.00;101837.34;5016527;28;20471;-60
2022/11/26 03:27:43;;;;;;;7.35;2.00;;;;;;;2.65;100.00;101841.97;5032800;28;20032;-61
2022/11/26 03:30:09;;;;;;;13.43;1.60;;;;;;;2.61;100.00;101851.84;5030495;28;20037;-60
2022/11/26 03:32:35;;;;;;;2.33;1.27;;;;;;;2.65;100.00;101836.75;5028822;28;20160;-60
2022/11/26 03:35:00;;;;;;;5.53;1.50;;;;;;;2.68;100.00;101839.16;5024081;28;20049;-59
2022/11/26 03:37:26;;;;;;;5.30;1.67;;;;;;;2.71;100.00;101846.78;5023127;28;20640;-58
2022/11/26 03:39:51;;;;;;;6.90;1.27;;;;;;;2.76;100.00;101848.16;5028634;28;20030;-59
2022/11/26 03:42:16;;;;;;;4.25;2.60;;;;;;;2.74;100.00;101846.59;5022024;28;20108;-59
2022/11/26 03:44:42;;;;;;;4.55;1.60;;;;;;;2.68;100.00;101842.59;5030459;28;20037;-60
2022/11/26 03:47:07;;;;;;;8.43;1.65;;;;;;;2.67;100.00;101843.56;5017666;28;20022;-61
2022/11/26 03:49:33;;;;;;;3.05;1.35;;;;;;;2.68;100.00;101834.75;5018664;28;20033;-59
2022/11/26 03:51:58;;;;;;;6.60;1.25;;;;;;;2.65;100.00;101834.97;5041031;28;20036;-59
2022/11/26 03:54:23;;;;;;;5.43;1.15;;;;;;;2.62;100.00;101837.78;5035471;28;20043;-60
2022/11/26 03:56:49;;;;;;;1.70;1.00;;;;;;;2.66;100.00;101851.50;5023948;28;20026;-58
2022/11/26 03:59:14;;;;;;;5.28;1.75;;;;;;;2.66;100.00;101844.50;5026554;28;20533;-60
2022/11/26 04:01:39;;;;;;;5.28;1.73;;;;;;;2.59;100.00;101846.69;5028190;28;20033;-59
2022/11/26 04:04:05;;;;;;;1.98;0.80;;;;;;;2.56;100.00;101835.63;5034551;28;20044;-57
2022/11/26 04:06:30;;;;;;;4.07;1.05;;;;;;;2.55;100.00;101842.59;5026522;28;20100;-60
2022/11/26 04:08:56;;;;;;;3.60;1.08;;;;;;;2.53;100.00;101831.44;5027555;28;20418;-59
2022/11/26 04:11:21;;;;;;;12.43;1.83;;;;;;;2.52;100.00;101836.75;5030090;28;20441;-60
2022/11/26 04:13:46;;;;;;;2.60;0.95;;;;;;;2.54;100.00;101829.63;5017923;28;20470;-60
2022/11/26 04:16:12;;;;;;;3.35;2.35;;;;;;;2.55;100.00;101824.28;5032619;28;20555;-58
2022/11/26 04:18:37;;;;;;;6.63;1.20;;;;;;;2.51;100.00;101822.00;5028514;28;20029;-59
2022/11/26 04:21:06;;;;;;;3.30;1.13;;;;;;;2.48;100.00;101824.81;5023196;28;20029;-58
2022/11/26 04:23:32;;;;;;;1.63;1.52;;;;;;;2.49;100.00;101832.56;5030411;28;20084;-61
2022/11/26 04:25:57;;;;;;;1.27;1.02;;;;;;;2.52;100.00;101828.91;5034038;28;20025;-60
2022/11/26 04:28:23;;;;;;;0.55;0.52;;;;;;;2.51;100.00;101830.69;5029322;28;20083;-61
2022/11/26 04:30:48;;;;;;;2.65;0.73;;;;;;;2.50;100.00;101820.31;5028327;28;20083;-60
2022/11/26 04:33:13;;;;;;;8.25;2.55;;;;;;;2.50;100.00;101828.16;5032180;28;20448;-57
2022/11/26 04:35:39;;;;;;;3.17;0.75;;;;;;;2.49;100.00;101827.31;5030426;28;20048;-59
2022/11/26 04:38:04;;;;;;;4.57;1.15;;;;;;;2.52;100.00;101823.66;5025701;28;20145;-60
2022/11/26 04:40:30;;;;;;;1.83;0.85;;;;;;;2.55;100.00;101823.44;5029673;28;20075;-59
2022/11/26 04:42:55;;;;;;;2.17;0.70;;;;;;;2.57;100.00;101821.56;5030683;28;20040;-60
2022/11/26 04:45:21;;;;;;;5.00;1.45;;;;;;;2.56;100.00;101818.13;5022747;28;20033;-61
2022/11/26 04:47:46;;;;;;;3.65;1.00;;;;;;;2.50;100.00;101813.28;5031613;28;20033;-59
2022/11/26 04:50:11;;;;;;;4.05;1.23;;;;;;;2.50;100.00;101817.69;5027414;28;20022;-58
2022/11/26 04:52:37;;;;;;;1.33;0.85;;;;;;;2.54;100.00;101821.78;5034846;28;20029;-59
2022/11/26 04:55:02;;;;;;;4.60;1.35;;;;;;;2.53;100.00;101807.00;5022148;28;20117;-60
2022/11/26 04:57:28;;;;;;;5.82;1.55;;;;;;;2.53;100.00;101801.75;5022273;28;20058;-58
2022/11/26 04:59:53;;;;;;;1.63;0.85;;;;;;;2.53;100.00;101809.63;5027819;28;20050;-59
2022/11/26 05:02:18;;;;;;;1.88;0.55;;;;;;;2.52;100.00;101810.56;5025361;28;20041;-60
2022/11/26 05:04:44;;;;;;;2.75;1.25;;;;;;;2.53;100.00;101813.09;5030940;28;20031;-60
2022/11/26 05:07:09;;;;;;;1.20;0.93;;;;;;;2.49;100.00;101814.25;5021209;28;20040;-59
2022/11/26 05:09:34;;;;;;;7.40;1.17;;;;;;;2.48;100.00;101809.09;5028348;28;20057;-60
2022/11/26 05:12:00;;;;;;;3.25;1.80;;;;;;;2.45;100.00;101819.78;5017338;28;20029;-60
2022/11/26 05:14:25;;;;;;;5.90;0.85;;;;;;;2.43;100.00;101822.53;5029177;28;20021;-60
2022/11/26 05:16:50;;;;;;;1.33;0.75;;;;;;;2.44;100.00;101825.97;5030264;28;20032;-59
2022/11/26 05:19:16;;;;;;;3.28;1.50;;;;;;;2.47;100.00;101833.63;5031229;28;20021;-59
2022/11/26 05:21:41;;;;;;;3.60;0.38;;;;;;;2.54;100.00;101835.72;5034006;28;20068;-59
2022/11/26 05:24:06;;;;;;;5.88;0.63;;;;;;;2.54;100.00;101832.25;5033270;28;20029;-60
2022/11/26 05:26:32;;;;;;;2.50;1.00;;;;;;;2.51;100.00;101832.47;5035918;28;20037;-60
2022/11/26 05:28:57;;;;;;;3.88;2.00;;;;;;;2.54;100.00;101837.50;5031308;28;20025;-60
2022/11/26 05:31:23;;;;;;;7.97;2.15;;;;;;;2.54;100.00;101827.03;5032425;28;20065;-58
2022/11/26 05:33:48;;;;;;;4.25;0.95;;;;;;;2.53;100.00;101831.44;5040358;28;20060;-60
2022/11/26 05:36:13;;;;;;;1.27;0.90;;;;;;;2.52;100.00;101847.22;5031270;28;20041;-60
2022/11/26 05:38:39;;;;;;;5.22;0.75;;;;;;;2.49;100.00;101843.03;5031602;28;20187;-60
2022/11/26 05:41:04;;;;;;;2.15;0.70;;;;;;;2.47;100.00;101844.91;5035145;28;20033;-59
2022/11/26 05:43:29;;;;;;;2.28;1.80;;;;;;;2.40;100.00;101843.66;5036190;28;20041;-59
2022/11/26 05:45:55;;;;;;;6.05;2.05;;;;;;;2.39;100.00;101844.59;5025392;28;20026;-59
2022/11/26 05:48:20;;;;;;;3.83;0.73;;;;;;;2.47;100.00;101850.16;5032454;28;20025;-60
2022/11/26 05:50:45;;;;;;;3.30;0.93;;;;;;;2.55;100.00;101844.41;5037505;28;20077;-60
2022/11/26 05:53:11;;;;;;;1.17;0.70;;;;;;;2.64;100.00;101845.56;5025475;28;20037;-59
2022/11/26 05:55:37;;;;;;;3.45;0.82;;;;;;;2.65;100.00;101841.97;5030716;28;20120;-60
2022/11/26 05:58:02;;;;;;;5.45;1.27;;;;;;;2.62;100.00;101856.13;5035054;28;20036;-59
2022/11/26 06:00:27;;;;;;;6.68;1.50;;;;;;;2.58;100.00;101858.13;5036833;28;20120;-60
2022/11/26 06:02:53;;;;;;;2.35;0.98;;;;;;;2.66;100.00;101859.38;5030659;28;20140;-59
2022/11/26 06:05:18;;;;;;;6.30;2.03;;;;;;;2.59;100.00;101843.25;5021514;28;20558;-59
2022/11/26 06:07:43;;;;;;;4.22;1.20;;;;;;;2.54;100.00;101834.88;5034306;28;20025;-59
2022/11/26 06:10:09;;;;;;;6.72;0.77;;;;;;;2.49;100.00;101829.94;5027766;28;20045;-60
2022/11/26 06:12:34;;;;;;;1.52;1.42;;;;;;;2.48;100.00;101830.03;5028346;28;20104;-59
2022/11/26 06:15:00;;;;;;;1.55;0.50;;;;;;;2.48;100.00;101828.28;5025632;28;20033;-59
2022/11/26 06:17:25;;;;;;;7.30;0.82;;;;;;;2.46;100.00;101827.53;5026597;28;20025;-58
2022/11/26 06:19:51;;;;;;;0.75;0.45;;;;;;;2.40;100.00;101825.31;5034486;28;20033;-58
2022/11/26 06:22:16;;;;;;;1.33;0.52;;;;;;;2.38;100.00;101833.31;5025685;28;20029;-60
2022/11/26 06:24:42;;;;;;;2.70;1.65;;;;;;;2.42;100.00;101846.19;5029575;28;20129;-60
2022/11/26 06:27:07;;;;;;;3.78;0.60;;;;;;;2.48;100.00;101846.59;5032257;28;20017;-60
2022/11/26 06:29:33;;;;;;;4.10;0.55;;;;;;;2.53;100.00;101844.53;5028701;28;20060;-59
2022/11/26 06:31:58;;;;;;;0.43;0.43;;;;;;;2.59;100.00;101843.25;5028566;28;20040;-60
2022/11/26 06:34:23;;;;;;;0.95;0.50;;;;;;;2.65;100.00;101842.81;5027316;28;20037;-60
2022/11/26 06:36:49;;;;;;;0.95;0.68;;;;;;;2.71;100.00;101841.53;5031376;28;20021;-58
2022/11/26 06:39:14;;;;;;;1.50;0.40;;;;;;;2.77;100.00;101847.22;5032022;28;21380;-59
2022/11/26 06:41:40;;;;;;;1.10;0.77;;;;;;;2.81;100.00;101838.22;5029366;28;20030;-59
2022/11/26 06:44:05;;;;;;;1.48;0.30;;;;;;;2.84;100.00;101827.50;5032690;28;20067;-59
2022/11/26 06:46:33;;;;;;;2.00;0.70;;;;;;;2.88;100.00;101829.91;5024526;28;20364;-60
2022/11/26 06:49:05;;;;;;;7.05;1.65;;;;;;;2.94;100.00;101826.84;5025997;28;20116;-59
2022/11/26 06:51:31;;;;;;;2.80;0.80;;;;;;;2.94;100.00;101837.31;5029916;28;20036;-59
2022/11/26 06:53:57;;;;;;;4.38;1.42;;;;;;;3.00;100.00;101842.16;5028085;28;20037;-58
2022/11/26 06:56:22;;;;;;;3.05;1.65;;;;;;;3.04;100.00;101848.81;5031976;28;20033;-57
2022/11/26 06:58:48;;;;;;;3.13;0.40;;;;;;;3.08;100.00;101845.06;5027411;28;20490;-58
2022/11/26 07:01:20;;;;;;;3.30;0.90;;;;;;;3.10;100.00;101840.56;5023694;28;20982;-59
2022/11/26 07:03:46;;;;;;;2.47;0.40;;;;;;;3.15;100.00;101843.69;5025439;28;20064;-59
2022/11/26 07:06:17;;;;;;;2.25;1.02;;;;;;;3.24;100.00;101835.16;5025254;28;20033;-56
2022/11/26 07:08:43;;;;;;;1.17;0.40;;;;;;;3.26;100.00;101827.19;5029101;28;20043;-59
2022/11/26 07:11:09;;;;;;;4.82;1.83;;;;;;;3.32;100.00;101825.91;5022192;28;20029;-59
2022/11/26 07:13:35;;;;;;;8.88;0.52;;;;;;;3.36;100.00;101837.84;5026736;28;20181;-60
2022/11/26 07:16:01;;;;;;;7.28;0.70;;;;;;;3.39;100.00;101837.63;5030162;28;20088;-58
2022/11/26 07:18:27;;;;;;;3.05;0.13;;;;;;;3.42;100.00;101832.16;5024607;28;20033;-57
2022/11/26 07:20:52;;;;;;;2.25;0.32;;;;;;;3.49;100.00;101823.72;5025615;28;20100;-60
2022/11/26 07:23:18;;;;;;;3.15;0.52;;;;;;;3.53;100.00;101819.09;5018846;28;20517;-58
2022/11/26 07:25:43;;;;;;;1.60;0.75;;;;;;;3.57;100.00;101820.53;5025232;28;20025;-59
2022/11/26 07:28:08;;;;;;;2.90;0.63;;;;;;;3.58;100.00;101824.00;5026588;28;20044;-60
2022/11/26 07:30:33;;;;;;;2.35;0.68;;;;;;;3.58;100.00;101818.75;5026549;28;20034;-56
2022/11/26 07:32:59;;;;;;;1.30;0.50;;;;;;;3.58;100.00;101832.69;5022625;28;20029;-59
2022/11/26 07:35:24;;;;;;;1.70;0.47;;;;;;;3.64;100.00;101816.53;5017501;28;20063;-60
2022/11/26 07:37:50;;;;;;;1.23;0.68;;;;;;;3.64;100.00;101811.28;5007357;28;20403;-60
2022/11/26 07:40:15;;;;;;;2.28;0.68;;;;;;;3.65;100.00;101806.88;5006373;28;20028;-59
2022/11/26 07:42:40;;;;;;;3.20;0.70;;;;;;;3.70;100.00;101805.56;5019973;28;20035;-60
2022/11/26 07:45:06;;;;;;;0.20;0.20;;;;;;;3.73;100.00;101809.75;5024703;28;20199;-60
2022/11/26 07:47:32;;;;;;;10.77;1.33;;;;;;;3.77;100.00;101815.59;5024580;28;20025;-58
2022/11/26 07:49:58;;;;;;;5.45;0.68;;;;;;;3.76;100.00;101827.88;5029381;28;20025;-58
2022/11/26 07:52:23;;;;;;;4.13;0.75;;;;;;;3.82;100.00;101818.72;5030071;28;20095;-60
2022/11/26 07:54:48;;;;;;;3.08;0.70;;;;;;;3.85;100.00;101810.63;5025800;28;20103;-56
2022/11/26 07:57:14;;;;;;;4.30;0.75;;;;;;;3.89;100.00;101823.38;5026664;28;20172;-60
2022/11/26 07:59:39;;;;;;;0.73;0.22;;;;;;;3.96;100.00;101821.16;5030440;28;20030;-57
2022/11/26 08:02:05;;;;;;;2.40;0.35;;;;;;;4.04;100.00;101813.53;5029823;28;20041;-59
2022/11/26 08:04:30;;;;;;;5.88;0.93;;;;;;;4.11;100.00;101806.06;5029970;28;20037;-58
2022/11/26 08:06:55;;;;;;;1.58;0.63;;;;;;;4.17;100.00;101800.31;5028228;28;20040;-55
2022/11/26 08:09:21;;;;;;;2.33;0.45;;;;;;;4.18;100.00;101794.09;5020611;28;20115;-56
2022/11/26 08:11:46;;;;;;;3.42;1.40;;;;;;;4.26;100.00;101797.00;5006821;28;20119;-58
2022/11/26 08:14:12;;;;;;;1.17;0.40;;;;;;;4.41;100.00;101787.09;5002594;28;20041;-59
2022/11/26 08:16:38;;;;;;;1.65;0.82;;;;;;;4.54;100.00;101789.59;5005291;28;20502;-58
2022/11/26 08:19:07;;;;;;;8.15;2.78;;;;;;;4.77;100.00;101806.19;4999435;28;20038;-58
2022/11/26 08:21:33;;;;;;;7.13;1.95;;;;;;;4.97;100.00;101813.34;4994466;28;20038;-60
2022/11/26 08:23:59;;;;;;;3.00;0.70;;;;;;;5.15;100.00;101821.56;4997742;28;20418;-59
2022/11/26 08:26:25;;;;;;;4.40;1.92;;;;;;;5.37;100.00;101814.56;5001038;28;20286;-59
2022/11/26 08:28:51;;;;;;;6.75;1.90;;;;;;;5.56;100.00;101813.91;5000549;28;20581;-58
2022/11/26 08:31:17;;;;;;;6.80;1.40;;;;;;;5.82;100.00;101820.47;5001877;28;20475;-59
2022/11/26 08:33:42;;;;;;;7.68;1.25;;;;;;;5.98;100.00;101821.88;5006127;28;20048;-60
2022/11/26 08:36:09;;;;;;;3.45;2.40;;;;;;;6.04;100.00;101824.84;5002820;28;20038;-56
2022/11/26 08:38:34;;;;;;;7.38;3.22;;;;;;;6.04;100.00;101829.25;5002624;28;20065;-60
2022/11/26 08:41:06;;;;;;;14.00;3.47;;;;;;;6.06;100.00;101825.53;5005336;28;20052;-59
2022/11/26 08:43:34;;;;;;;8.20;2.47;;;;;;;6.04;100.00;101818.72;5005738;28;20034;-56
2022/11/26 08:45:59;;;;;;;2.50;1.02;;;;;;;6.10;100.00;101812.97;5007148;28;20105;-59
2022/11/26 08:48:26;;;;;;;6.97;0.95;;;;;;;6.24;100.00;101824.94;5006826;28;20567;-61
2022/11/26 08:51:04;;;;;;;12.35;1.10;;;;;;;6.48;100.00;101837.81;5010852;28;20153;-61
2022/11/26 08:53:31;;;;;;;3.00;0.88;;;;;;;6.63;100.00;101830.41;5004252;28;20384;-60
2022/11/26 08:56:04;;;;;;;7.72;1.45;;;;;;;6.73;100.00;101828.66;5007958;28;20036;-58
2022/11/26 08:58:33;;;;;;;11.10;3.20;;;;;;;6.76;100.00;101829.25;5005136;28;20044;-58
2022/11/26 09:00:58;;;;;;;8.52;2.00;;;;;;;6.80;100.00;101811.34;5007632;28;20107;-60
2022/11/26 09:03:24;;;;;;;7.80;1.02;;;;;;;6.92;100.00;101830.53;5006766;28;20021;-60
2022/11/26 09:05:49;;;;;;;4.93;1.58;;;;;;;7.05;100.00;101835.53;5009600;28;20065;-61
2022/11/26 09:08:14;;;;;;;9.10;1.95;;;;;;;7.13;100.00;101833.91;5008135;28;20434;-60
2022/11/26 09:10:40;;;;;;;4.47;1.60;;;;;;;7.19;100.00;101822.00;5008376;28;20354;-61
2022/11/26 09:13:05;;;;;;;12.77;1.77;;;;;;;7.25;100.00;101815.34;5008739;28;20022;-61
2022/11/26 09:15:30;;;;;;;11.68;2.22;;;;;;;7.36;100.00;101812.59;5008865;28;20041;-61
2022/11/26 09:17:56;;;;;;;9.73;2.25;;;;;;;7.46;100.00;101802.00;5015383;28;20022;-61
2022/11/26 09:20:21;;;;;;;18.25;2.72;;;;;;;7.62;100.00;101816.34;5007406;28;20069;-60
2022/11/26 09:22:46;;;;;;;3.72;1.08;;;;;;;7.70;100.00;101810.38;5009930;28;20346;-61
2022/11/26 09:25:12;;;;;;;8.00;2.42;;;;;;;7.75;100.00;101812.59;5008366;28;20291;-61
2022/11/26 09:27:37;;;;;;;13.25;1.65;;;;;;;7.79;100.00;101816.59;5008877;28;20034;-60
2022/11/26 09:30:04;;;;;;;20.67;4.10;;;;;;;7.90;100.00;101821.75;5009974;28;20026;-59
2022/11/26 09:32:29;;;;;;;3.90;0.80;;;;;;;7.94;100.00;101817.00;5006692;28;20038;-60
2022/11/26 09:34:54;;;;;;;13.10;4.28;;;;;;;8.04;100.00;101812.56;5008266;28;20080;-60
2022/11/26 09:37:20;;;;;;;7.40;1.80;;;;;;;8.02;100.00;101807.41;5008190;28;20041;-61
2022/11/26 09:39:46;;;;;;;10.65;2.15;;;;;;;8.02;100.00;101801.28;5000847;28;20033;-61
2022/11/26 09:42:36;;;;;;;4.15;1.08;;;;;;;8.25;100.00;101793.88;5011864;28;20083;-61
2022/11/26 09:45:29;;;;;;;17.08;2.17;;;;;;;8.39;100.00;101801.38;5007787;28;20419;-59
2022/11/26 09:47:54;;;;;;;10.10;2.00;;;;;;;8.47;100.00;101806.78;4998979;28;20129;-61
2022/11/26 09:50:26;;;;;;;7.15;1.42;;;;;;;8.57;100.00;101808.53;5001816;28;20531;-61
2022/11/26 09:53:00;;;;;;;6.85;1.10;;;;;;;8.66;100.00;101810.31;5005023;28;20026;-60
2022/11/26 09:55:30;;;;;;;7.38;0.55;;;;;;;8.75;100.00;101812.06;5001144;28;20450;-60
2022/11/26 09:58:14;;;;;;;5.43;1.65;;;;;;;8.89;100.00;101808.13;4993789;28;20147;-61
2022/11/26 10:00:43;;;;;;;5.88;1.20;;;;;;;8.93;100.00;101777.72;4990047;28;20037;-62
2022/11/26 10:03:21;;;;;;;8.68;1.83;;;;;;;8.94;100.00;101780.22;4993310;28;20180;-60
2022/11/26 10:06:08;;;;;;;15.00;2.72;;;;;;;9.02;100.00;101776.84;4996012;28;20037;-61
2022/11/26 10:08:55;;;;;;;12.13;1.60;;;;;;;9.16;100.00;101760.47;4975108;28;20108;-60
2022/11/26 10:11:54;;;;;;;17.70;2.65;;;;;;;9.21;100.00;101727.41;4969949;28;20405;-62
2022/11/26 10:14:44;;;;;;;17.17;0.75;;;;;;;9.30;100.00;101732.63;4973370;28;21754;-57
2022/11/26 10:17:33;;;;;;;9.10;1.60;;;;;;;9.27;100.00;101726.81;4975244;28;20054;-63
2022/11/26 10:20:20;;;;;;;12.18;2.88;;;;;;;9.34;100.00;101712.78;4979591;28;20303;-63
2022/11/26 10:23:04;;;;;;;8.48;0.85;;;;;;;9.37;100.00;101707.22;4960668;28;20105;-63
2022/11/26 10:25:37;;;;;;;15.57;1.55;;;;;;;9.39;100.00;101683.22;4983411;28;20109;-61
2022/11/26 10:28:25;;;;;;;13.45;2.15;;;;;;;9.43;100.00;101691.72;4973582;28;20403;-59
2022/11/26 10:30:59;;;;;;;10.63;2.25;;;;;;;9.42;100.00;101682.91;4981336;28;20112;-61
2022/11/26 10:33:34;;;;;;;17.20;2.60;;;;;;;9.45;100.00;101671.19;4986356;28;20038;-62
2022/11/26 10:36:00;;;;;;;6.45;0.65;;;;;;;9.50;100.00;101664.47;4991869;28;20033;-61
2022/11/26 10:38:25;;;;;;;9.68;2.00;;;;;;;9.53;100.00;101669.44;5000102;28;20041;-62
2022/11/26 10:40:51;;;;;;;12.68;1.60;;;;;;;9.58;100.00;101669.81;4982992;28;20409;-62
2022/11/26 10:43:20;;;;;;;11.38;1.23;;;;;;;9.61;100.00;101655.44;4979134;28;20057;-61
2022/11/26 10:45:49;;;;;;;11.55;1.60;;;;;;;9.69;100.00;101652.81;4977322;28;20251;-61
2022/11/26 10:48:36;;;;;;;6.03;2.08;;;;;;;9.75;100.00;101657.47;4978041;28;20123;-63
2022/11/26 10:51:27;;;;;;;7.78;0.63;;;;;;;9.84;100.00;101661.03;4974048;28;20046;-60
2022/11/26 10:54:01;;;;;;;8.90;1.05;;;;;;;9.95;100.00;101655.44;4977241;28;20077;-61
2022/11/26 10:56:45;;;;;;;12.18;1.73;;;;;;;10.00;100.00;101658.47;4985625;28;20451;-61
2022/11/26 10:59:23;;;;;;;16.50;1.25;;;;;;;10.06;100.00;101659.63;4971551;28;20038;-62
2022/11/26 11:01:50;;;;;;;3.95;1.00;;;;;;;9.97;100.00;101650.81;4986875;28;20039;-61
2022/11/26 11:04:23;;;;;;;13.43;1.90;;;;;;;10.05;100.00;101663.28;4981097;28;20034;-60
2022/11/26 11:06:49;;;;;;;6.80;1.75;;;;;;;10.12;100.00;101656.38;4981758;28;20038;-61
2022/11/26 11:09:24;;;;;;;17.13;3.00;;;;;;;10.15;100.00;101647.28;4994198;28;20041;-61
2022/11/26 11:12:09;;;;;;;7.10;1.65;;;;;;;10.14;100.00;101642.94;5026176;28;20041;-61
2022/11/26 11:14:35;;;;;;;16.45;3.10;;;;;;;10.17;100.00;101638.16;5024438;28;20037;-61
2022/11/26 11:17:01;;;;;;;11.13;2.55;;;;;;;10.16;100.00;101628.53;5027576;28;20086;-60
2022/11/26 11:19:26;;;;;;;6.10;0.75;;;;;;;10.20;100.00;101629.88;5024165;28;20049;-61
2022/11/26 11:21:52;;;;;;;8.20;3.33;;;;;;;10.19;100.00;101627.38;5024884;28;20376;-60
2022/11/26 11:24:22;;;;;;;9.52;1.48;;;;;;;10.20;100.00;101623.75;5013436;28;20033;-61
2022/11/26 11:26:53;;;;;;;8.43;1.58;;;;;;;10.25;100.00;101626.75;5025024;28;20018;-62
2022/11/26 11:29:27;;;;;;;10.90;3.00;;;;;;;10.34;100.00;101630.28;5021955;28;20445;-61
2022/11/26 11:31:52;;;;;;;5.95;0.70;;;;;;;10.33;100.00;101618.88;5021698;28;20029;-62